<?xml version="1.0" encoding="UTF-8" standalone="no" ?>
<gpx xmlns="http://www.topografix.com/GPX/1/1" xmlns:xsi="http://www.w3.org/2001/XMLSchema-instance" xsi:schemaLocation="http://www.topografix.com/GPX/1/1 http://www.topografix.com/GPX/1/1/gpx.xsd" version="1.1" creator="VisuGPX - https://www.visugpx.com">
  <metadata>
    <name>Tour de France 2019</name>
    <desc><![CDATA[4272km en 2 mois en tandem avec notre petit chien dans le panier avant]]></desc>
  </metadata>
  <trk>
    <name><![CDATA[Tracé 20191003-091411]]></name>
    <trkseg>
      <trkpt lat="46.86233" lon="4.92307">
        <ele>190.782</ele>
        <time>2019-10-03T07:24:53Z</time>
      </trkpt>
      <trkpt lat="46.86154" lon="4.924">
        <ele>190.513</ele>
        <time>2019-10-03T07:25:23Z</time>
      </trkpt>
      <trkpt lat="46.86154" lon="4.92614">
        <ele>187.476</ele>
        <time>2019-10-03T07:25:53Z</time>
      </trkpt>
      <trkpt lat="46.86135" lon="4.92824">
        <ele>186.475</ele>
        <time>2019-10-03T07:26:23Z</time>
      </trkpt>
      <trkpt lat="46.86132" lon="4.93035">
        <ele>186.149</ele>
        <time>2019-10-03T07:26:53Z</time>
      </trkpt>
      <trkpt lat="46.8612" lon="4.93236">
        <ele>184.366</ele>
        <time>2019-10-03T07:27:23Z</time>
      </trkpt>
      <trkpt lat="46.86115" lon="4.93445">
        <ele>186.128</ele>
        <time>2019-10-03T07:27:53Z</time>
      </trkpt>
      <trkpt lat="46.86051" lon="4.93659">
        <ele>187.926</ele>
        <time>2019-10-03T07:28:26Z</time>
      </trkpt>
      <trkpt lat="46.85973" lon="4.93815">
        <ele>187.864</ele>
        <time>2019-10-03T07:28:56Z</time>
      </trkpt>
      <trkpt lat="46.85874" lon="4.93938">
        <ele>189.162</ele>
        <time>2019-10-03T07:29:26Z</time>
      </trkpt>
      <trkpt lat="46.85744" lon="4.9401">
        <ele>190.135</ele>
        <time>2019-10-03T07:29:56Z</time>
      </trkpt>
      <trkpt lat="46.85613" lon="4.94155">
        <ele>186.957</ele>
        <time>2019-10-03T07:30:26Z</time>
      </trkpt>
      <trkpt lat="46.8548" lon="4.94283">
        <ele>184.962</ele>
        <time>2019-10-03T07:30:56Z</time>
      </trkpt>
      <trkpt lat="46.85329" lon="4.94385">
        <ele>183.591</ele>
        <time>2019-10-03T07:31:26Z</time>
      </trkpt>
      <trkpt lat="46.85207" lon="4.94535">
        <ele>182.855</ele>
        <time>2019-10-03T07:31:56Z</time>
      </trkpt>
      <trkpt lat="46.85088" lon="4.94671">
        <ele>184.594</ele>
        <time>2019-10-03T07:32:26Z</time>
      </trkpt>
      <trkpt lat="46.84947" lon="4.94759">
        <ele>183.666</ele>
        <time>2019-10-03T07:32:56Z</time>
      </trkpt>
      <trkpt lat="46.84799" lon="4.94849">
        <ele>185.099</ele>
        <time>2019-10-03T07:33:26Z</time>
      </trkpt>
      <trkpt lat="46.84648" lon="4.94927">
        <ele>183.969</ele>
        <time>2019-10-03T07:33:56Z</time>
      </trkpt>
      <trkpt lat="46.84488" lon="4.94986">
        <ele>182.867</ele>
        <time>2019-10-03T07:34:26Z</time>
      </trkpt>
      <trkpt lat="46.84324" lon="4.95024">
        <ele>186.848</ele>
        <time>2019-10-03T07:34:56Z</time>
      </trkpt>
      <trkpt lat="46.84172" lon="4.95068">
        <ele>185.06</ele>
        <time>2019-10-03T07:35:26Z</time>
      </trkpt>
      <trkpt lat="46.84085" lon="4.95199">
        <ele>182.233</ele>
        <time>2019-10-03T07:35:59Z</time>
      </trkpt>
      <trkpt lat="46.84076" lon="4.95417">
        <ele>179.074</ele>
        <time>2019-10-03T07:36:29Z</time>
      </trkpt>
      <trkpt lat="46.84031" lon="4.95626">
        <ele>173.716</ele>
        <time>2019-10-03T07:36:59Z</time>
      </trkpt>
      <trkpt lat="46.83982" lon="4.95799">
        <ele>172.656</ele>
        <time>2019-10-03T07:37:29Z</time>
      </trkpt>
      <trkpt lat="46.83926" lon="4.95892">
        <ele>171.988</ele>
        <time>2019-10-03T07:37:59Z</time>
      </trkpt>
      <trkpt lat="46.8384" lon="4.95792">
        <ele>173.805</ele>
        <time>2019-10-03T07:38:29Z</time>
      </trkpt>
      <trkpt lat="46.83747" lon="4.95666">
        <ele>176.79</ele>
        <time>2019-10-03T07:38:59Z</time>
      </trkpt>
      <trkpt lat="46.83646" lon="4.95537">
        <ele>174.746</ele>
        <time>2019-10-03T07:39:29Z</time>
      </trkpt>
      <trkpt lat="46.83581" lon="4.9547">
        <ele>174.946</ele>
        <time>2019-10-03T07:51:05.001Z</time>
      </trkpt>
      <trkpt lat="46.83487" lon="4.95375">
        <ele>175.745</ele>
        <time>2019-10-03T07:51:35.001Z</time>
      </trkpt>
      <trkpt lat="46.83381" lon="4.95251">
        <ele>176.614</ele>
        <time>2019-10-03T07:52:05.001Z</time>
      </trkpt>
      <trkpt lat="46.83269" lon="4.95117">
        <ele>178.642</ele>
        <time>2019-10-03T07:52:35.001Z</time>
      </trkpt>
      <trkpt lat="46.83151" lon="4.94978">
        <ele>180.885</ele>
        <time>2019-10-03T07:53:05.001Z</time>
      </trkpt>
      <trkpt lat="46.83038" lon="4.94821">
        <ele>185.563</ele>
        <time>2019-10-03T07:53:35.001Z</time>
      </trkpt>
      <trkpt lat="46.82928" lon="4.94644">
        <ele>184.08</ele>
        <time>2019-10-03T07:54:08.001Z</time>
      </trkpt>
      <trkpt lat="46.82839" lon="4.94474">
        <ele>181.295</ele>
        <time>2019-10-03T07:54:38.001Z</time>
      </trkpt>
      <trkpt lat="46.82742" lon="4.94314">
        <ele>176.326</ele>
        <time>2019-10-03T07:55:08.001Z</time>
      </trkpt>
      <trkpt lat="46.82633" lon="4.94163">
        <ele>177.023</ele>
        <time>2019-10-03T07:55:38.001Z</time>
      </trkpt>
      <trkpt lat="46.82515" lon="4.94027">
        <ele>177.632</ele>
        <time>2019-10-03T07:56:08.001Z</time>
      </trkpt>
      <trkpt lat="46.82596" lon="4.93869">
        <ele>176.185</ele>
        <time>2019-10-03T07:56:38.001Z</time>
      </trkpt>
      <trkpt lat="46.82555" lon="4.93778">
        <ele>177.618</ele>
        <time>2019-10-03T07:57:08.001Z</time>
      </trkpt>
      <trkpt lat="46.82464" lon="4.93624">
        <ele>176.332</ele>
        <time>2019-10-03T07:57:38.001Z</time>
      </trkpt>
      <trkpt lat="46.82377" lon="4.93426">
        <ele>175.066</ele>
        <time>2019-10-03T07:58:08.001Z</time>
      </trkpt>
      <trkpt lat="46.82339" lon="4.93253">
        <ele>175.895</ele>
        <time>2019-10-03T07:58:38.001Z</time>
      </trkpt>
      <trkpt lat="46.82446" lon="4.93105">
        <ele>176.135</ele>
        <time>2019-10-03T07:59:08.001Z</time>
      </trkpt>
      <trkpt lat="46.82555" lon="4.92968">
        <ele>180.558</ele>
        <time>2019-10-03T07:59:38.001Z</time>
      </trkpt>
      <trkpt lat="46.82599" lon="4.9282">
        <ele>180.735</ele>
        <time>2019-10-03T08:00:08.001Z</time>
      </trkpt>
      <trkpt lat="46.82486" lon="4.92651">
        <ele>175.358</ele>
        <time>2019-10-03T08:00:38.001Z</time>
      </trkpt>
      <trkpt lat="46.82378" lon="4.9248">
        <ele>175.76</ele>
        <time>2019-10-03T08:01:08.001Z</time>
      </trkpt>
      <trkpt lat="46.82271" lon="4.92287">
        <ele>176.436</ele>
        <time>2019-10-03T08:01:41.001Z</time>
      </trkpt>
      <trkpt lat="46.82227" lon="4.92082">
        <ele>176.21</ele>
        <time>2019-10-03T08:02:11.001Z</time>
      </trkpt>
      <trkpt lat="46.82199" lon="4.91872">
        <ele>179.216</ele>
        <time>2019-10-03T08:02:41.001Z</time>
      </trkpt>
      <trkpt lat="46.82147" lon="4.91665">
        <ele>179.023</ele>
        <time>2019-10-03T08:03:11.001Z</time>
      </trkpt>
      <trkpt lat="46.82073" lon="4.9146">
        <ele>180.578</ele>
        <time>2019-10-03T08:03:41.001Z</time>
      </trkpt>
      <trkpt lat="46.82007" lon="4.9127">
        <ele>181.813</ele>
        <time>2019-10-03T08:04:11.001Z</time>
      </trkpt>
      <trkpt lat="46.81958" lon="4.91085">
        <ele>180.101</ele>
        <time>2019-10-03T08:04:41.001Z</time>
      </trkpt>
      <trkpt lat="46.81891" lon="4.90905">
        <ele>177.848</ele>
        <time>2019-10-03T08:05:11.001Z</time>
      </trkpt>
      <trkpt lat="46.81827" lon="4.9073">
        <ele>173.899</ele>
        <time>2019-10-03T08:05:41.001Z</time>
      </trkpt>
      <trkpt lat="46.81738" lon="4.90552">
        <ele>172.579</ele>
        <time>2019-10-03T08:06:11.001Z</time>
      </trkpt>
      <trkpt lat="46.81666" lon="4.90357">
        <ele>174.085</ele>
        <time>2019-10-03T08:06:41.001Z</time>
      </trkpt>
      <trkpt lat="46.81589" lon="4.90176">
        <ele>176.376</ele>
        <time>2019-10-03T08:07:11.001Z</time>
      </trkpt>
      <trkpt lat="46.81552" lon="4.90008">
        <ele>178.101</ele>
        <time>2019-10-03T08:07:41.001Z</time>
      </trkpt>
      <trkpt lat="46.81497" lon="4.89885">
        <ele>181.243</ele>
        <time>2019-10-03T08:08:11.001Z</time>
      </trkpt>
      <trkpt lat="46.81452" lon="4.89771">
        <ele>179.432</ele>
        <time>2019-10-03T08:08:41.001Z</time>
      </trkpt>
      <trkpt lat="46.81489" lon="4.89545">
        <ele>179.41</ele>
        <time>2019-10-03T08:09:14.001Z</time>
      </trkpt>
      <trkpt lat="46.81496" lon="4.89349">
        <ele>179.867</ele>
        <time>2019-10-03T08:09:44.001Z</time>
      </trkpt>
      <trkpt lat="46.81533" lon="4.8917">
        <ele>180.283</ele>
        <time>2019-10-03T08:10:14.001Z</time>
      </trkpt>
      <trkpt lat="46.81486" lon="4.88997">
        <ele>181.129</ele>
        <time>2019-10-03T08:10:44.001Z</time>
      </trkpt>
      <trkpt lat="46.81429" lon="4.88813">
        <ele>178.692</ele>
        <time>2019-10-03T08:11:14.001Z</time>
      </trkpt>
      <trkpt lat="46.81323" lon="4.88645">
        <ele>175.9</ele>
        <time>2019-10-03T08:11:44.001Z</time>
      </trkpt>
      <trkpt lat="46.8132" lon="4.88451">
        <ele>175.948</ele>
        <time>2019-10-03T08:12:14.001Z</time>
      </trkpt>
      <trkpt lat="46.81435" lon="4.88358">
        <ele>182.153</ele>
        <time>2019-10-03T08:12:44.001Z</time>
      </trkpt>
      <trkpt lat="46.81438" lon="4.88202">
        <ele>180.386</ele>
        <time>2019-10-03T08:13:14.001Z</time>
      </trkpt>
      <trkpt lat="46.81547" lon="4.88085">
        <ele>181.466</ele>
        <time>2019-10-03T08:13:44.001Z</time>
      </trkpt>
      <trkpt lat="46.81562" lon="4.87984">
        <ele>182.017</ele>
        <time>2019-10-03T08:14:14.001Z</time>
      </trkpt>
      <trkpt lat="46.81603" lon="4.87913">
        <ele>188.329</ele>
        <time>2019-10-03T08:14:47.001Z</time>
      </trkpt>
      <trkpt lat="46.81577" lon="4.87806">
        <ele>193.557</ele>
        <time>2019-10-03T08:15:17.001Z</time>
      </trkpt>
      <trkpt lat="46.81542" lon="4.877">
        <ele>194.823</ele>
        <time>2019-10-03T08:15:47.001Z</time>
      </trkpt>
      <trkpt lat="46.81498" lon="4.87571">
        <ele>192.476</ele>
        <time>2019-10-03T08:16:20.001Z</time>
      </trkpt>
      <trkpt lat="46.81426" lon="4.87419">
        <ele>193.242</ele>
        <time>2019-10-03T08:16:50.001Z</time>
      </trkpt>
      <trkpt lat="46.81348" lon="4.87255">
        <ele>196.18</ele>
        <time>2019-10-03T08:17:20.001Z</time>
      </trkpt>
      <trkpt lat="46.81261" lon="4.87079">
        <ele>191.89</ele>
        <time>2019-10-03T08:17:50.001Z</time>
      </trkpt>
      <trkpt lat="46.81183" lon="4.86922">
        <ele>190.161</ele>
        <time>2019-10-03T08:18:20.001Z</time>
      </trkpt>
      <trkpt lat="46.81097" lon="4.86739">
        <ele>189.301</ele>
        <time>2019-10-03T08:18:50.001Z</time>
      </trkpt>
      <trkpt lat="46.81002" lon="4.86588">
        <ele>188.387</ele>
        <time>2019-10-03T08:19:20.001Z</time>
      </trkpt>
      <trkpt lat="46.80881" lon="4.86474">
        <ele>188.934</ele>
        <time>2019-10-03T08:19:50.001Z</time>
      </trkpt>
      <trkpt lat="46.80743" lon="4.86383">
        <ele>190.039</ele>
        <time>2019-10-03T08:20:20.001Z</time>
      </trkpt>
      <trkpt lat="46.80789" lon="4.86226">
        <ele>187.456</ele>
        <time>2019-10-03T08:20:50.001Z</time>
      </trkpt>
      <trkpt lat="46.80775" lon="4.8628">
        <ele>188.978</ele>
        <time>2019-10-03T08:21:20.001Z</time>
      </trkpt>
      <trkpt lat="46.80664" lon="4.86206">
        <ele>193.326</ele>
        <time>2019-10-03T08:21:50.001Z</time>
      </trkpt>
      <trkpt lat="46.80605" lon="4.86155">
        <ele>193.459</ele>
        <time>2019-10-03T08:25:02Z</time>
      </trkpt>
      <trkpt lat="46.80392" lon="4.86121">
        <ele>186.588</ele>
        <time>2019-10-03T08:25:32.001Z</time>
      </trkpt>
      <trkpt lat="46.80323" lon="4.86126">
        <ele>180.21</ele>
        <time>2019-10-03T08:26:23.001Z</time>
      </trkpt>
      <trkpt lat="46.80265" lon="4.86298">
        <ele>180.215</ele>
        <time>2019-10-03T08:26:56.001Z</time>
      </trkpt>
      <trkpt lat="46.80181" lon="4.8647">
        <ele>181.945</ele>
        <time>2019-10-03T08:27:26.001Z</time>
      </trkpt>
      <trkpt lat="46.80076" lon="4.86632">
        <ele>185.566</ele>
        <time>2019-10-03T08:27:56.001Z</time>
      </trkpt>
      <trkpt lat="46.79966" lon="4.86768">
        <ele>177.729</ele>
        <time>2019-10-03T08:28:26.001Z</time>
      </trkpt>
      <trkpt lat="46.79831" lon="4.86839">
        <ele>178.031</ele>
        <time>2019-10-03T08:28:56.001Z</time>
      </trkpt>
      <trkpt lat="46.79685" lon="4.86838">
        <ele>181.097</ele>
        <time>2019-10-03T08:29:26.001Z</time>
      </trkpt>
      <trkpt lat="46.79533" lon="4.86831">
        <ele>184.518</ele>
        <time>2019-10-03T08:29:56.001Z</time>
      </trkpt>
      <trkpt lat="46.79395" lon="4.86779">
        <ele>182.902</ele>
        <time>2019-10-03T08:30:26.001Z</time>
      </trkpt>
      <trkpt lat="46.79252" lon="4.86747">
        <ele>187.276</ele>
        <time>2019-10-03T08:30:56.001Z</time>
      </trkpt>
      <trkpt lat="46.79103" lon="4.86739">
        <ele>186.419</ele>
        <time>2019-10-03T08:31:26.001Z</time>
      </trkpt>
      <trkpt lat="46.78968" lon="4.86659">
        <ele>182.198</ele>
        <time>2019-10-03T08:31:56.001Z</time>
      </trkpt>
      <trkpt lat="46.78863" lon="4.86539">
        <ele>179.622</ele>
        <time>2019-10-03T08:32:26.001Z</time>
      </trkpt>
      <trkpt lat="46.78777" lon="4.86554">
        <ele>179.235</ele>
        <time>2019-10-03T08:32:59.001Z</time>
      </trkpt>
      <trkpt lat="46.78711" lon="4.86623">
        <ele>178.154</ele>
        <time>2019-10-03T08:37:32.001Z</time>
      </trkpt>
      <trkpt lat="46.78601" lon="4.86747">
        <ele>178.451</ele>
        <time>2019-10-03T08:38:05.001Z</time>
      </trkpt>
      <trkpt lat="46.78531" lon="4.86863">
        <ele>182.922</ele>
        <time>2019-10-03T08:38:35.001Z</time>
      </trkpt>
      <trkpt lat="46.78447" lon="4.86992">
        <ele>181.89</ele>
        <time>2019-10-03T08:39:05.001Z</time>
      </trkpt>
      <trkpt lat="46.78394" lon="4.87069">
        <ele>181.678</ele>
        <time>2019-10-03T08:40:41.001Z</time>
      </trkpt>
      <trkpt lat="46.78298" lon="4.87209">
        <ele>180.696</ele>
        <time>2019-10-03T08:41:11.001Z</time>
      </trkpt>
      <trkpt lat="46.78311" lon="4.87174">
        <ele>179.464</ele>
        <time>2019-10-03T08:42:53.001Z</time>
      </trkpt>
      <trkpt lat="46.78266" lon="4.87248">
        <ele>176.717</ele>
        <time>2019-10-03T08:43:23.001Z</time>
      </trkpt>
      <trkpt lat="46.78163" lon="4.87408">
        <ele>175.575</ele>
        <time>2019-10-03T08:43:53.001Z</time>
      </trkpt>
      <trkpt lat="46.78053" lon="4.8756">
        <ele>172.387</ele>
        <time>2019-10-03T08:44:23.001Z</time>
      </trkpt>
      <trkpt lat="46.77928" lon="4.8766">
        <ele>170.89</ele>
        <time>2019-10-03T08:44:53.001Z</time>
      </trkpt>
      <trkpt lat="46.77791" lon="4.87701">
        <ele>168.907</ele>
        <time>2019-10-03T08:45:23.001Z</time>
      </trkpt>
      <trkpt lat="46.77731" lon="4.8762">
        <ele>169.76</ele>
        <time>2019-10-03T08:45:56.001Z</time>
      </trkpt>
      <trkpt lat="46.77651" lon="4.87619">
        <ele>167.295</ele>
        <time>2019-10-03T08:46:26.001Z</time>
      </trkpt>
      <trkpt lat="46.77583" lon="4.87717">
        <ele>169.93</ele>
        <time>2019-10-03T08:46:59.001Z</time>
      </trkpt>
      <trkpt lat="46.77506" lon="4.87835">
        <ele>171.649</ele>
        <time>2019-10-03T08:47:29.001Z</time>
      </trkpt>
      <trkpt lat="46.77354" lon="4.87804">
        <ele>173.751</ele>
        <time>2019-10-03T08:48:02Z</time>
      </trkpt>
      <trkpt lat="46.77244" lon="4.8785">
        <ele>171.292</ele>
        <time>2019-10-03T08:48:32.001Z</time>
      </trkpt>
      <trkpt lat="46.7721" lon="4.88029">
        <ele>172.078</ele>
        <time>2019-10-03T08:49:02Z</time>
      </trkpt>
      <trkpt lat="46.77228" lon="4.882">
        <ele>175.489</ele>
        <time>2019-10-03T08:49:32.001Z</time>
      </trkpt>
      <trkpt lat="46.77213" lon="4.88394">
        <ele>175.529</ele>
        <time>2019-10-03T08:50:02Z</time>
      </trkpt>
      <trkpt lat="46.77191" lon="4.88576">
        <ele>183.018</ele>
        <time>2019-10-03T08:50:32.001Z</time>
      </trkpt>
      <trkpt lat="46.77286" lon="4.88677">
        <ele>180.72</ele>
        <time>2019-10-03T08:51:02Z</time>
      </trkpt>
      <trkpt lat="46.77347" lon="4.88808">
        <ele>179.594</ele>
        <time>2019-10-03T08:51:32.001Z</time>
      </trkpt>
      <trkpt lat="46.7735" lon="4.88984">
        <ele>180.064</ele>
        <time>2019-10-03T08:52:02Z</time>
      </trkpt>
      <trkpt lat="46.77322" lon="4.89166">
        <ele>180.696</ele>
        <time>2019-10-03T08:52:32.001Z</time>
      </trkpt>
      <trkpt lat="46.77278" lon="4.89303">
        <ele>185.88</ele>
        <time>2019-10-03T08:53:02Z</time>
      </trkpt>
      <trkpt lat="46.7714" lon="4.8933">
        <ele>181.379</ele>
        <time>2019-10-03T08:53:32.001Z</time>
      </trkpt>
      <trkpt lat="46.77018" lon="4.89404">
        <ele>184.049</ele>
        <time>2019-10-03T08:54:02Z</time>
      </trkpt>
      <trkpt lat="46.76945" lon="4.8957">
        <ele>187.802</ele>
        <time>2019-10-03T08:54:32.001Z</time>
      </trkpt>
      <trkpt lat="46.76852" lon="4.89666">
        <ele>187.614</ele>
        <time>2019-10-03T08:55:02Z</time>
      </trkpt>
      <trkpt lat="46.76753" lon="4.89841">
        <ele>180.683</ele>
        <time>2019-10-03T08:55:35.001Z</time>
      </trkpt>
      <trkpt lat="46.76666" lon="4.89954">
        <ele>178.469</ele>
        <time>2019-10-03T08:56:05.001Z</time>
      </trkpt>
      <trkpt lat="46.76544" lon="4.90055">
        <ele>178.008</ele>
        <time>2019-10-03T08:56:35.001Z</time>
      </trkpt>
      <trkpt lat="46.76398" lon="4.90118">
        <ele>175.822</ele>
        <time>2019-10-03T08:57:05.001Z</time>
      </trkpt>
      <trkpt lat="46.76252" lon="4.90132">
        <ele>182</ele>
        <time>2019-10-03T08:57:35.001Z</time>
      </trkpt>
      <trkpt lat="46.76104" lon="4.90118">
        <ele>184.457</ele>
        <time>2019-10-03T08:58:05.001Z</time>
      </trkpt>
      <trkpt lat="46.75953" lon="4.90105">
        <ele>178.791</ele>
        <time>2019-10-03T08:58:35.001Z</time>
      </trkpt>
      <trkpt lat="46.75808" lon="4.90083">
        <ele>177.804</ele>
        <time>2019-10-03T08:59:05.001Z</time>
      </trkpt>
      <trkpt lat="46.7567" lon="4.90084">
        <ele>179.095</ele>
        <time>2019-10-03T08:59:35.001Z</time>
      </trkpt>
      <trkpt lat="46.75542" lon="4.90115">
        <ele>181.162</ele>
        <time>2019-10-03T09:00:05.001Z</time>
      </trkpt>
      <trkpt lat="46.75483" lon="4.90088">
        <ele>183.205</ele>
        <time>2019-10-03T09:03:23.001Z</time>
      </trkpt>
      <trkpt lat="46.75485" lon="4.9012">
        <ele>184.109</ele>
        <time>2019-10-03T09:04:17.001Z</time>
      </trkpt>
      <trkpt lat="46.75421" lon="4.90176">
        <ele>182.817</ele>
        <time>2019-10-03T09:04:47.001Z</time>
      </trkpt>
      <trkpt lat="46.75302" lon="4.90238">
        <ele>182.721</ele>
        <time>2019-10-03T09:05:17.001Z</time>
      </trkpt>
      <trkpt lat="46.75166" lon="4.90315">
        <ele>186.983</ele>
        <time>2019-10-03T09:05:50.001Z</time>
      </trkpt>
      <trkpt lat="46.75065" lon="4.90391">
        <ele>191.679</ele>
        <time>2019-10-03T09:06:20.001Z</time>
      </trkpt>
      <trkpt lat="46.74973" lon="4.90507">
        <ele>192.42</ele>
        <time>2019-10-03T09:06:50.001Z</time>
      </trkpt>
      <trkpt lat="46.74902" lon="4.90638">
        <ele>190.298</ele>
        <time>2019-10-03T09:07:20.001Z</time>
      </trkpt>
      <trkpt lat="46.74841" lon="4.90782">
        <ele>189.34</ele>
        <time>2019-10-03T09:07:50.001Z</time>
      </trkpt>
      <trkpt lat="46.74781" lon="4.90928">
        <ele>190.493</ele>
        <time>2019-10-03T09:08:20.001Z</time>
      </trkpt>
      <trkpt lat="46.74719" lon="4.91071">
        <ele>191.56</ele>
        <time>2019-10-03T09:08:50.001Z</time>
      </trkpt>
      <trkpt lat="46.74662" lon="4.91213">
        <ele>194.312</ele>
        <time>2019-10-03T09:09:20.001Z</time>
      </trkpt>
      <trkpt lat="46.74599" lon="4.91365">
        <ele>195.164</ele>
        <time>2019-10-03T09:09:50.001Z</time>
      </trkpt>
      <trkpt lat="46.74529" lon="4.91525">
        <ele>198.302</ele>
        <time>2019-10-03T09:10:20.001Z</time>
      </trkpt>
      <trkpt lat="46.74465" lon="4.91679">
        <ele>195.318</ele>
        <time>2019-10-03T09:10:50.001Z</time>
      </trkpt>
      <trkpt lat="46.74398" lon="4.91846">
        <ele>195.007</ele>
        <time>2019-10-03T09:11:20.001Z</time>
      </trkpt>
      <trkpt lat="46.74332" lon="4.92004">
        <ele>193.29</ele>
        <time>2019-10-03T09:11:50.001Z</time>
      </trkpt>
      <trkpt lat="46.74266" lon="4.92164">
        <ele>196.716</ele>
        <time>2019-10-03T09:12:20.001Z</time>
      </trkpt>
      <trkpt lat="46.74196" lon="4.92338">
        <ele>203.433</ele>
        <time>2019-10-03T09:12:50.001Z</time>
      </trkpt>
      <trkpt lat="46.74111" lon="4.92548">
        <ele>202.414</ele>
        <time>2019-10-03T09:13:23.001Z</time>
      </trkpt>
      <trkpt lat="46.74031" lon="4.92738">
        <ele>198.207</ele>
        <time>2019-10-03T09:13:53.001Z</time>
      </trkpt>
      <trkpt lat="46.73962" lon="4.92894">
        <ele>193.9</ele>
        <time>2019-10-03T09:14:23.001Z</time>
      </trkpt>
      <trkpt lat="46.73902" lon="4.93041">
        <ele>193.102</ele>
        <time>2019-10-03T09:14:53.001Z</time>
      </trkpt>
      <trkpt lat="46.73837" lon="4.93198">
        <ele>188.468</ele>
        <time>2019-10-03T09:15:23.001Z</time>
      </trkpt>
      <trkpt lat="46.73772" lon="4.93354">
        <ele>191.412</ele>
        <time>2019-10-03T09:15:53.001Z</time>
      </trkpt>
      <trkpt lat="46.73714" lon="4.93499">
        <ele>191.48</ele>
        <time>2019-10-03T09:16:23.001Z</time>
      </trkpt>
      <trkpt lat="46.7365" lon="4.93651">
        <ele>193.132</ele>
        <time>2019-10-03T09:16:53.001Z</time>
      </trkpt>
      <trkpt lat="46.73589" lon="4.93807">
        <ele>193.241</ele>
        <time>2019-10-03T09:17:23.001Z</time>
      </trkpt>
      <trkpt lat="46.73521" lon="4.93968">
        <ele>198.786</ele>
        <time>2019-10-03T09:17:53.001Z</time>
      </trkpt>
      <trkpt lat="46.73454" lon="4.94121">
        <ele>194.772</ele>
        <time>2019-10-03T09:18:23.001Z</time>
      </trkpt>
      <trkpt lat="46.73388" lon="4.94276">
        <ele>192.75</ele>
        <time>2019-10-03T09:18:53.001Z</time>
      </trkpt>
      <trkpt lat="46.73322" lon="4.94434">
        <ele>194.123</ele>
        <time>2019-10-03T09:19:23.001Z</time>
      </trkpt>
      <trkpt lat="46.73271" lon="4.94556">
        <ele>196.005</ele>
        <time>2019-10-03T09:19:53.001Z</time>
      </trkpt>
      <trkpt lat="46.73195" lon="4.94741">
        <ele>194.336</ele>
        <time>2019-10-03T09:20:26.001Z</time>
      </trkpt>
      <trkpt lat="46.73123" lon="4.9491">
        <ele>198.403</ele>
        <time>2019-10-03T09:20:56.001Z</time>
      </trkpt>
      <trkpt lat="46.73053" lon="4.95074">
        <ele>193.208</ele>
        <time>2019-10-03T09:21:26.001Z</time>
      </trkpt>
      <trkpt lat="46.72983" lon="4.9525">
        <ele>193.865</ele>
        <time>2019-10-03T09:21:56.001Z</time>
      </trkpt>
      <trkpt lat="46.72905" lon="4.95439">
        <ele>194.061</ele>
        <time>2019-10-03T09:22:26.001Z</time>
      </trkpt>
      <trkpt lat="46.72818" lon="4.9564">
        <ele>186.486</ele>
        <time>2019-10-03T09:22:56.001Z</time>
      </trkpt>
      <trkpt lat="46.72734" lon="4.95825">
        <ele>188.163</ele>
        <time>2019-10-03T09:23:26.001Z</time>
      </trkpt>
      <trkpt lat="46.72666" lon="4.95984">
        <ele>192.08</ele>
        <time>2019-10-03T09:23:56.001Z</time>
      </trkpt>
      <trkpt lat="46.72603" lon="4.96153">
        <ele>190.145</ele>
        <time>2019-10-03T09:24:26.001Z</time>
      </trkpt>
      <trkpt lat="46.72536" lon="4.96322">
        <ele>188.736</ele>
        <time>2019-10-03T09:24:56.001Z</time>
      </trkpt>
      <trkpt lat="46.72466" lon="4.96486">
        <ele>188.515</ele>
        <time>2019-10-03T09:25:26.001Z</time>
      </trkpt>
      <trkpt lat="46.72394" lon="4.96654">
        <ele>190.902</ele>
        <time>2019-10-03T09:25:56.001Z</time>
      </trkpt>
      <trkpt lat="46.7232" lon="4.96782">
        <ele>189.339</ele>
        <time>2019-10-03T09:26:26.001Z</time>
      </trkpt>
      <trkpt lat="46.72214" lon="4.96931">
        <ele>190.891</ele>
        <time>2019-10-03T09:26:56.001Z</time>
      </trkpt>
      <trkpt lat="46.72087" lon="4.97057">
        <ele>190.798</ele>
        <time>2019-10-03T09:27:26.001Z</time>
      </trkpt>
      <trkpt lat="46.71955" lon="4.97186">
        <ele>187.852</ele>
        <time>2019-10-03T09:27:59.001Z</time>
      </trkpt>
      <trkpt lat="46.71827" lon="4.97305">
        <ele>185.043</ele>
        <time>2019-10-03T09:28:29.001Z</time>
      </trkpt>
      <trkpt lat="46.71699" lon="4.97438">
        <ele>185.935</ele>
        <time>2019-10-03T09:28:59.001Z</time>
      </trkpt>
      <trkpt lat="46.71552" lon="4.97535">
        <ele>187.541</ele>
        <time>2019-10-03T09:29:29.001Z</time>
      </trkpt>
      <trkpt lat="46.71386" lon="4.97603">
        <ele>180.964</ele>
        <time>2019-10-03T09:29:59.001Z</time>
      </trkpt>
      <trkpt lat="46.71263" lon="4.97727">
        <ele>171.159</ele>
        <time>2019-10-03T09:30:29.001Z</time>
      </trkpt>
      <trkpt lat="46.71149" lon="4.9787">
        <ele>172.519</ele>
        <time>2019-10-03T09:30:59.001Z</time>
      </trkpt>
      <trkpt lat="46.71038" lon="4.97987">
        <ele>174.078</ele>
        <time>2019-10-03T09:31:29.001Z</time>
      </trkpt>
      <trkpt lat="46.7092" lon="4.98076">
        <ele>176.825</ele>
        <time>2019-10-03T09:31:59.001Z</time>
      </trkpt>
      <trkpt lat="46.70814" lon="4.98153">
        <ele>176.301</ele>
        <time>2019-10-03T09:32:29.001Z</time>
      </trkpt>
      <trkpt lat="46.70709" lon="4.98233">
        <ele>176.246</ele>
        <time>2019-10-03T09:32:59.001Z</time>
      </trkpt>
      <trkpt lat="46.70631" lon="4.9833">
        <ele>178.037</ele>
        <time>2019-10-03T09:33:29.001Z</time>
      </trkpt>
      <trkpt lat="46.70635" lon="4.98322">
        <ele>178.617</ele>
        <time>2019-10-03T09:37:23.001Z</time>
      </trkpt>
      <trkpt lat="46.70633" lon="4.98319">
        <ele>179.957</ele>
        <time>2019-10-03T09:42:26.001Z</time>
      </trkpt>
      <trkpt lat="46.70634" lon="4.98319">
        <ele>180.019</ele>
        <time>2019-10-03T09:45:11.001Z</time>
      </trkpt>
      <trkpt lat="46.70636" lon="4.9832">
        <ele>182.12</ele>
        <time>2019-10-03T09:52:05.001Z</time>
      </trkpt>
      <trkpt lat="46.70636" lon="4.9832">
        <ele>182.12</ele>
        <time>2019-10-03T10:04:20.001Z</time>
      </trkpt>
      <trkpt lat="46.70636" lon="4.9832">
        <ele>182.12</ele>
        <time>2019-10-03T10:09:59.001Z</time>
      </trkpt>
      <trkpt lat="46.7063" lon="4.98323">
        <ele>182.889</ele>
        <time>2019-10-03T10:13:26.001Z</time>
      </trkpt>
      <trkpt lat="46.70571" lon="4.98411">
        <ele>187.202</ele>
        <time>2019-10-03T10:13:59.001Z</time>
      </trkpt>
      <trkpt lat="46.70509" lon="4.98287">
        <ele>186.908</ele>
        <time>2019-10-03T10:14:29.001Z</time>
      </trkpt>
      <trkpt lat="46.70431" lon="4.98221">
        <ele>188.252</ele>
        <time>2019-10-03T10:14:59.001Z</time>
      </trkpt>
      <trkpt lat="46.70362" lon="4.98171">
        <ele>187.409</ele>
        <time>2019-10-03T10:15:29.001Z</time>
      </trkpt>
      <trkpt lat="46.70305" lon="4.98082">
        <ele>188.293</ele>
        <time>2019-10-03T10:15:59.001Z</time>
      </trkpt>
      <trkpt lat="46.70117" lon="4.97977">
        <ele>185.236</ele>
        <time>2019-10-03T10:16:29.001Z</time>
      </trkpt>
      <trkpt lat="46.69893" lon="4.97945">
        <ele>176.351</ele>
        <time>2019-10-03T10:16:59.001Z</time>
      </trkpt>
      <trkpt lat="46.6975" lon="4.97856">
        <ele>177.753</ele>
        <time>2019-10-03T10:17:29.001Z</time>
      </trkpt>
      <trkpt lat="46.69667" lon="4.97789">
        <ele>180.861</ele>
        <time>2019-10-03T10:17:59.001Z</time>
      </trkpt>
      <trkpt lat="46.69587" lon="4.97727">
        <ele>183.832</ele>
        <time>2019-10-03T10:18:29.001Z</time>
      </trkpt>
      <trkpt lat="46.69406" lon="4.97581">
        <ele>181.186</ele>
        <time>2019-10-03T10:19:02Z</time>
      </trkpt>
      <trkpt lat="46.69219" lon="4.97428">
        <ele>174.136</ele>
        <time>2019-10-03T10:19:32.001Z</time>
      </trkpt>
      <trkpt lat="46.69111" lon="4.97449">
        <ele>169.821</ele>
        <time>2019-10-03T10:20:02Z</time>
      </trkpt>
      <trkpt lat="46.68982" lon="4.97475">
        <ele>175.638</ele>
        <time>2019-10-03T10:20:32.001Z</time>
      </trkpt>
      <trkpt lat="46.68885" lon="4.97393">
        <ele>177.805</ele>
        <time>2019-10-03T10:21:02Z</time>
      </trkpt>
      <trkpt lat="46.68839" lon="4.97154">
        <ele>179.173</ele>
        <time>2019-10-03T10:21:32.001Z</time>
      </trkpt>
      <trkpt lat="46.6872" lon="4.96999">
        <ele>178.857</ele>
        <time>2019-10-03T10:22:02Z</time>
      </trkpt>
      <trkpt lat="46.6861" lon="4.96838">
        <ele>175.205</ele>
        <time>2019-10-03T10:22:32.001Z</time>
      </trkpt>
      <trkpt lat="46.68504" lon="4.96677">
        <ele>177.373</ele>
        <time>2019-10-03T10:23:02Z</time>
      </trkpt>
      <trkpt lat="46.68432" lon="4.96472">
        <ele>174.056</ele>
        <time>2019-10-03T10:23:32.001Z</time>
      </trkpt>
      <trkpt lat="46.68368" lon="4.96277">
        <ele>174.222</ele>
        <time>2019-10-03T10:24:02Z</time>
      </trkpt>
      <trkpt lat="46.68266" lon="4.96123">
        <ele>180.329</ele>
        <time>2019-10-03T10:24:32.001Z</time>
      </trkpt>
      <trkpt lat="46.68173" lon="4.95953">
        <ele>182.698</ele>
        <time>2019-10-03T10:25:02Z</time>
      </trkpt>
      <trkpt lat="46.6814" lon="4.95736">
        <ele>177.74</ele>
        <time>2019-10-03T10:25:32.001Z</time>
      </trkpt>
      <trkpt lat="46.68108" lon="4.95527">
        <ele>175.711</ele>
        <time>2019-10-03T10:26:02Z</time>
      </trkpt>
      <trkpt lat="46.67963" lon="4.95482">
        <ele>175.986</ele>
        <time>2019-10-03T10:26:35.001Z</time>
      </trkpt>
      <trkpt lat="46.67848" lon="4.95373">
        <ele>171.911</ele>
        <time>2019-10-03T10:27:05.001Z</time>
      </trkpt>
      <trkpt lat="46.67752" lon="4.9521">
        <ele>171.657</ele>
        <time>2019-10-03T10:27:35.001Z</time>
      </trkpt>
      <trkpt lat="46.67601" lon="4.95201">
        <ele>169.249</ele>
        <time>2019-10-03T10:28:05.001Z</time>
      </trkpt>
      <trkpt lat="46.67457" lon="4.95195">
        <ele>171.249</ele>
        <time>2019-10-03T10:28:35.001Z</time>
      </trkpt>
      <trkpt lat="46.67308" lon="4.9519">
        <ele>174.703</ele>
        <time>2019-10-03T10:29:05.001Z</time>
      </trkpt>
      <trkpt lat="46.67151" lon="4.95183">
        <ele>176.265</ele>
        <time>2019-10-03T10:29:35.001Z</time>
      </trkpt>
      <trkpt lat="46.66991" lon="4.95173">
        <ele>173.73</ele>
        <time>2019-10-03T10:30:05.001Z</time>
      </trkpt>
      <trkpt lat="46.66848" lon="4.95137">
        <ele>174.004</ele>
        <time>2019-10-03T10:30:35.001Z</time>
      </trkpt>
      <trkpt lat="46.66824" lon="4.9499">
        <ele>181.477</ele>
        <time>2019-10-03T10:31:08.001Z</time>
      </trkpt>
      <trkpt lat="46.66811" lon="4.9484">
        <ele>183.031</ele>
        <time>2019-10-03T10:31:38.001Z</time>
      </trkpt>
      <trkpt lat="46.66723" lon="4.94592">
        <ele>178.462</ele>
        <time>2019-10-03T10:32:08.001Z</time>
      </trkpt>
      <trkpt lat="46.66559" lon="4.94595">
        <ele>173.199</ele>
        <time>2019-10-03T10:32:38.001Z</time>
      </trkpt>
      <trkpt lat="46.66404" lon="4.94548">
        <ele>169.546</ele>
        <time>2019-10-03T10:33:08.001Z</time>
      </trkpt>
      <trkpt lat="46.66292" lon="4.94385">
        <ele>173.182</ele>
        <time>2019-10-03T10:33:41.001Z</time>
      </trkpt>
      <trkpt lat="46.66215" lon="4.94185">
        <ele>176.121</ele>
        <time>2019-10-03T10:34:11.001Z</time>
      </trkpt>
      <trkpt lat="46.66166" lon="4.94149">
        <ele>176.553</ele>
        <time>2019-10-03T10:36:26.001Z</time>
      </trkpt>
      <trkpt lat="46.66091" lon="4.94187">
        <ele>178.124</ele>
        <time>2019-10-03T10:36:56.001Z</time>
      </trkpt>
      <trkpt lat="46.65981" lon="4.94184">
        <ele>175.704</ele>
        <time>2019-10-03T10:37:26.001Z</time>
      </trkpt>
      <trkpt lat="46.65853" lon="4.94165">
        <ele>173.31</ele>
        <time>2019-10-03T10:37:56.001Z</time>
      </trkpt>
      <trkpt lat="46.65704" lon="4.94165">
        <ele>172.211</ele>
        <time>2019-10-03T10:38:26.001Z</time>
      </trkpt>
      <trkpt lat="46.6555" lon="4.94157">
        <ele>173.265</ele>
        <time>2019-10-03T10:38:56.001Z</time>
      </trkpt>
      <trkpt lat="46.65397" lon="4.94167">
        <ele>174.761</ele>
        <time>2019-10-03T10:39:26.001Z</time>
      </trkpt>
      <trkpt lat="46.65275" lon="4.94159">
        <ele>174.977</ele>
        <time>2019-10-03T10:39:56.001Z</time>
      </trkpt>
      <trkpt lat="46.65153" lon="4.94136">
        <ele>178.268</ele>
        <time>2019-10-03T10:40:26.001Z</time>
      </trkpt>
      <trkpt lat="46.64981" lon="4.94057">
        <ele>177.426</ele>
        <time>2019-10-03T10:40:56.001Z</time>
      </trkpt>
      <trkpt lat="46.64847" lon="4.93956">
        <ele>176.787</ele>
        <time>2019-10-03T10:41:26.001Z</time>
      </trkpt>
      <trkpt lat="46.64736" lon="4.93851">
        <ele>179.812</ele>
        <time>2019-10-03T10:41:56.001Z</time>
      </trkpt>
      <trkpt lat="46.64635" lon="4.93788">
        <ele>177.938</ele>
        <time>2019-10-03T10:42:26.001Z</time>
      </trkpt>
      <trkpt lat="46.64452" lon="4.93751">
        <ele>175.764</ele>
        <time>2019-10-03T10:42:59.001Z</time>
      </trkpt>
      <trkpt lat="46.64337" lon="4.93604">
        <ele>174.41</ele>
        <time>2019-10-03T10:43:29.001Z</time>
      </trkpt>
      <trkpt lat="46.64255" lon="4.9349">
        <ele>174.965</ele>
        <time>2019-10-03T10:43:59.001Z</time>
      </trkpt>
      <trkpt lat="46.64134" lon="4.93439">
        <ele>176.682</ele>
        <time>2019-10-03T10:44:29.001Z</time>
      </trkpt>
      <trkpt lat="46.64008" lon="4.93341">
        <ele>177.704</ele>
        <time>2019-10-03T10:44:59.001Z</time>
      </trkpt>
      <trkpt lat="46.63873" lon="4.9326">
        <ele>177.995</ele>
        <time>2019-10-03T10:45:29.001Z</time>
      </trkpt>
      <trkpt lat="46.63734" lon="4.9317">
        <ele>177.52</ele>
        <time>2019-10-03T10:45:59.001Z</time>
      </trkpt>
      <trkpt lat="46.63597" lon="4.93092">
        <ele>177.947</ele>
        <time>2019-10-03T10:46:29.001Z</time>
      </trkpt>
      <trkpt lat="46.63461" lon="4.92972">
        <ele>178.7</ele>
        <time>2019-10-03T10:46:59.001Z</time>
      </trkpt>
      <trkpt lat="46.63321" lon="4.92875">
        <ele>176.811</ele>
        <time>2019-10-03T10:47:29.001Z</time>
      </trkpt>
      <trkpt lat="46.63156" lon="4.92833">
        <ele>176.095</ele>
        <time>2019-10-03T10:47:59.001Z</time>
      </trkpt>
      <trkpt lat="46.63006" lon="4.92776">
        <ele>177.31</ele>
        <time>2019-10-03T10:48:29.001Z</time>
      </trkpt>
      <trkpt lat="46.62866" lon="4.9274">
        <ele>177.146</ele>
        <time>2019-10-03T10:48:59.001Z</time>
      </trkpt>
      <trkpt lat="46.62705" lon="4.92694">
        <ele>179.489</ele>
        <time>2019-10-03T10:49:29.001Z</time>
      </trkpt>
      <trkpt lat="46.62554" lon="4.92647">
        <ele>182.335</ele>
        <time>2019-10-03T10:49:59.001Z</time>
      </trkpt>
      <trkpt lat="46.62383" lon="4.92583">
        <ele>175.797</ele>
        <time>2019-10-03T10:50:32.001Z</time>
      </trkpt>
      <trkpt lat="46.62236" lon="4.92536">
        <ele>172.33</ele>
        <time>2019-10-03T10:51:02Z</time>
      </trkpt>
      <trkpt lat="46.62086" lon="4.92496">
        <ele>175.639</ele>
        <time>2019-10-03T10:51:32.001Z</time>
      </trkpt>
      <trkpt lat="46.61914" lon="4.9245">
        <ele>174.457</ele>
        <time>2019-10-03T10:52:02Z</time>
      </trkpt>
      <trkpt lat="46.61762" lon="4.92421">
        <ele>176.407</ele>
        <time>2019-10-03T10:52:32.001Z</time>
      </trkpt>
      <trkpt lat="46.61621" lon="4.92367">
        <ele>177.241</ele>
        <time>2019-10-03T10:53:02Z</time>
      </trkpt>
      <trkpt lat="46.6149" lon="4.92339">
        <ele>177.651</ele>
        <time>2019-10-03T10:53:32.001Z</time>
      </trkpt>
      <trkpt lat="46.61331" lon="4.9234">
        <ele>174.883</ele>
        <time>2019-10-03T10:54:02Z</time>
      </trkpt>
      <trkpt lat="46.61169" lon="4.92343">
        <ele>175.437</ele>
        <time>2019-10-03T10:54:32.001Z</time>
      </trkpt>
      <trkpt lat="46.61021" lon="4.92351">
        <ele>172.975</ele>
        <time>2019-10-03T10:55:02Z</time>
      </trkpt>
      <trkpt lat="46.60923" lon="4.92288">
        <ele>174.2</ele>
        <time>2019-10-03T10:55:32.001Z</time>
      </trkpt>
      <trkpt lat="46.60927" lon="4.92179">
        <ele>180.407</ele>
        <time>2019-10-03T10:56:02Z</time>
      </trkpt>
      <trkpt lat="46.60781" lon="4.9203">
        <ele>180.735</ele>
        <time>2019-10-03T10:56:32.001Z</time>
      </trkpt>
      <trkpt lat="46.60614" lon="4.91947">
        <ele>178.743</ele>
        <time>2019-10-03T10:57:02Z</time>
      </trkpt>
      <trkpt lat="46.60472" lon="4.9184">
        <ele>179.017</ele>
        <time>2019-10-03T10:57:35.001Z</time>
      </trkpt>
      <trkpt lat="46.60398" lon="4.91707">
        <ele>180.191</ele>
        <time>2019-10-03T10:58:08.001Z</time>
      </trkpt>
      <trkpt lat="46.60362" lon="4.91866">
        <ele>181.944</ele>
        <time>2019-10-03T10:58:38.001Z</time>
      </trkpt>
      <trkpt lat="46.60288" lon="4.92017">
        <ele>181.753</ele>
        <time>2019-10-03T10:59:08.001Z</time>
      </trkpt>
      <trkpt lat="46.60174" lon="4.92126">
        <ele>180.764</ele>
        <time>2019-10-03T10:59:38.001Z</time>
      </trkpt>
      <trkpt lat="46.60059" lon="4.92149">
        <ele>178.282</ele>
        <time>2019-10-03T11:00:08.001Z</time>
      </trkpt>
      <trkpt lat="46.59935" lon="4.92126">
        <ele>172.97</ele>
        <time>2019-10-03T11:00:38.001Z</time>
      </trkpt>
      <trkpt lat="46.59816" lon="4.92081">
        <ele>169.405</ele>
        <time>2019-10-03T11:01:08.001Z</time>
      </trkpt>
      <trkpt lat="46.59745" lon="4.91959">
        <ele>174.846</ele>
        <time>2019-10-03T11:01:38.001Z</time>
      </trkpt>
      <trkpt lat="46.59697" lon="4.91814">
        <ele>179.125</ele>
        <time>2019-10-03T11:02:08.001Z</time>
      </trkpt>
      <trkpt lat="46.59615" lon="4.91701">
        <ele>178.979</ele>
        <time>2019-10-03T11:02:38.001Z</time>
      </trkpt>
      <trkpt lat="46.59542" lon="4.91588">
        <ele>177.566</ele>
        <time>2019-10-03T11:03:08.001Z</time>
      </trkpt>
      <trkpt lat="46.59481" lon="4.91677">
        <ele>171.989</ele>
        <time>2019-10-03T11:03:38.001Z</time>
      </trkpt>
      <trkpt lat="46.5945" lon="4.91851">
        <ele>171.721</ele>
        <time>2019-10-03T11:04:08.001Z</time>
      </trkpt>
      <trkpt lat="46.59413" lon="4.91958">
        <ele>173.212</ele>
        <time>2019-10-03T11:04:38.001Z</time>
      </trkpt>
      <trkpt lat="46.59372" lon="4.92099">
        <ele>173.54</ele>
        <time>2019-10-03T11:07:08.001Z</time>
      </trkpt>
      <trkpt lat="46.59327" lon="4.92217">
        <ele>171.658</ele>
        <time>2019-10-03T11:07:38.001Z</time>
      </trkpt>
      <trkpt lat="46.59259" lon="4.92319">
        <ele>167.923</ele>
        <time>2019-10-03T11:08:08.001Z</time>
      </trkpt>
      <trkpt lat="46.59187" lon="4.92241">
        <ele>170.877</ele>
        <time>2019-10-03T11:08:38.001Z</time>
      </trkpt>
      <trkpt lat="46.59113" lon="4.92155">
        <ele>175.916</ele>
        <time>2019-10-03T11:09:08.001Z</time>
      </trkpt>
      <trkpt lat="46.59043" lon="4.9206">
        <ele>177.204</ele>
        <time>2019-10-03T11:09:38.001Z</time>
      </trkpt>
      <trkpt lat="46.58978" lon="4.91937">
        <ele>176.108</ele>
        <time>2019-10-03T11:10:08.001Z</time>
      </trkpt>
      <trkpt lat="46.58893" lon="4.91832">
        <ele>174.632</ele>
        <time>2019-10-03T11:10:38.001Z</time>
      </trkpt>
      <trkpt lat="46.58804" lon="4.91736">
        <ele>171.585</ele>
        <time>2019-10-03T11:11:08.001Z</time>
      </trkpt>
      <trkpt lat="46.58719" lon="4.91642">
        <ele>171.03</ele>
        <time>2019-10-03T11:11:38.001Z</time>
      </trkpt>
      <trkpt lat="46.58628" lon="4.91557">
        <ele>171.866</ele>
        <time>2019-10-03T11:12:08.001Z</time>
      </trkpt>
      <trkpt lat="46.58539" lon="4.915">
        <ele>173.794</ele>
        <time>2019-10-03T11:12:38.001Z</time>
      </trkpt>
      <trkpt lat="46.58441" lon="4.91435">
        <ele>171.591</ele>
        <time>2019-10-03T11:13:08.001Z</time>
      </trkpt>
      <trkpt lat="46.58322" lon="4.91348">
        <ele>172.052</ele>
        <time>2019-10-03T11:13:38.001Z</time>
      </trkpt>
      <trkpt lat="46.58181" lon="4.91266">
        <ele>173.137</ele>
        <time>2019-10-03T11:14:11.001Z</time>
      </trkpt>
      <trkpt lat="46.5805" lon="4.91212">
        <ele>172.095</ele>
        <time>2019-10-03T11:14:41.001Z</time>
      </trkpt>
      <trkpt lat="46.57908" lon="4.91205">
        <ele>171.226</ele>
        <time>2019-10-03T11:15:11.001Z</time>
      </trkpt>
      <trkpt lat="46.57752" lon="4.91193">
        <ele>171.481</ele>
        <time>2019-10-03T11:15:41.001Z</time>
      </trkpt>
      <trkpt lat="46.57597" lon="4.91192">
        <ele>169.927</ele>
        <time>2019-10-03T11:16:11.001Z</time>
      </trkpt>
      <trkpt lat="46.57459" lon="4.91219">
        <ele>167.96</ele>
        <time>2019-10-03T11:16:41.001Z</time>
      </trkpt>
      <trkpt lat="46.57314" lon="4.91244">
        <ele>167.717</ele>
        <time>2019-10-03T11:17:11.001Z</time>
      </trkpt>
      <trkpt lat="46.5715" lon="4.91234">
        <ele>170.893</ele>
        <time>2019-10-03T11:17:41.001Z</time>
      </trkpt>
      <trkpt lat="46.57005" lon="4.91196">
        <ele>172.609</ele>
        <time>2019-10-03T11:18:11.001Z</time>
      </trkpt>
      <trkpt lat="46.56859" lon="4.91148">
        <ele>172.503</ele>
        <time>2019-10-03T11:18:41.001Z</time>
      </trkpt>
      <trkpt lat="46.56719" lon="4.9112">
        <ele>174.921</ele>
        <time>2019-10-03T11:19:11.001Z</time>
      </trkpt>
      <trkpt lat="46.56597" lon="4.91123">
        <ele>175.885</ele>
        <time>2019-10-03T11:19:41.001Z</time>
      </trkpt>
      <trkpt lat="46.56465" lon="4.91183">
        <ele>170.512</ele>
        <time>2019-10-03T11:20:11.001Z</time>
      </trkpt>
      <trkpt lat="46.56369" lon="4.91226">
        <ele>172.16</ele>
        <time>2019-10-03T11:20:41.001Z</time>
      </trkpt>
      <trkpt lat="46.56198" lon="4.91353">
        <ele>169.743</ele>
        <time>2019-10-03T11:21:11.001Z</time>
      </trkpt>
      <trkpt lat="46.5607" lon="4.91485">
        <ele>169.089</ele>
        <time>2019-10-03T11:21:44.001Z</time>
      </trkpt>
      <trkpt lat="46.55939" lon="4.9159">
        <ele>166.649</ele>
        <time>2019-10-03T11:22:14.001Z</time>
      </trkpt>
      <trkpt lat="46.558" lon="4.91678">
        <ele>167.837</ele>
        <time>2019-10-03T11:22:44.001Z</time>
      </trkpt>
      <trkpt lat="46.55652" lon="4.91746">
        <ele>166.074</ele>
        <time>2019-10-03T11:23:14.001Z</time>
      </trkpt>
      <trkpt lat="46.55504" lon="4.91794">
        <ele>169.906</ele>
        <time>2019-10-03T11:23:44.001Z</time>
      </trkpt>
      <trkpt lat="46.55412" lon="4.91851">
        <ele>174.185</ele>
        <time>2019-10-03T11:26:29.001Z</time>
      </trkpt>
      <trkpt lat="46.55353" lon="4.91883">
        <ele>173.996</ele>
        <time>2019-10-03T11:33:23.001Z</time>
      </trkpt>
      <trkpt lat="46.55243" lon="4.91941">
        <ele>172.186</ele>
        <time>2019-10-03T11:33:53.001Z</time>
      </trkpt>
      <trkpt lat="46.55133" lon="4.91993">
        <ele>171.842</ele>
        <time>2019-10-03T11:34:23.001Z</time>
      </trkpt>
      <trkpt lat="46.55001" lon="4.92038">
        <ele>172.388</ele>
        <time>2019-10-03T11:34:53.001Z</time>
      </trkpt>
      <trkpt lat="46.54861" lon="4.92107">
        <ele>169.464</ele>
        <time>2019-10-03T11:35:23.001Z</time>
      </trkpt>
      <trkpt lat="46.54729" lon="4.92232">
        <ele>169.982</ele>
        <time>2019-10-03T11:35:53.001Z</time>
      </trkpt>
      <trkpt lat="46.5459" lon="4.92323">
        <ele>170.804</ele>
        <time>2019-10-03T11:36:23.001Z</time>
      </trkpt>
      <trkpt lat="46.54461" lon="4.9242">
        <ele>170.76</ele>
        <time>2019-10-03T11:36:53.001Z</time>
      </trkpt>
      <trkpt lat="46.54331" lon="4.92489">
        <ele>171.71</ele>
        <time>2019-10-03T11:37:23.001Z</time>
      </trkpt>
      <trkpt lat="46.54177" lon="4.92575">
        <ele>171.285</ele>
        <time>2019-10-03T11:37:56.001Z</time>
      </trkpt>
      <trkpt lat="46.54027" lon="4.92641">
        <ele>169.406</ele>
        <time>2019-10-03T11:38:26.001Z</time>
      </trkpt>
      <trkpt lat="46.53888" lon="4.92704">
        <ele>170.791</ele>
        <time>2019-10-03T11:38:56.001Z</time>
      </trkpt>
      <trkpt lat="46.53749" lon="4.92785">
        <ele>169.217</ele>
        <time>2019-10-03T11:39:26.001Z</time>
      </trkpt>
      <trkpt lat="46.5361" lon="4.92863">
        <ele>170.336</ele>
        <time>2019-10-03T11:39:56.001Z</time>
      </trkpt>
      <trkpt lat="46.53497" lon="4.92926">
        <ele>174.064</ele>
        <time>2019-10-03T11:40:26.001Z</time>
      </trkpt>
      <trkpt lat="46.53347" lon="4.93036">
        <ele>171.315</ele>
        <time>2019-10-03T11:40:56.001Z</time>
      </trkpt>
      <trkpt lat="46.53218" lon="4.93138">
        <ele>169.063</ele>
        <time>2019-10-03T11:41:26.001Z</time>
      </trkpt>
      <trkpt lat="46.53091" lon="4.9323">
        <ele>167.85</ele>
        <time>2019-10-03T11:41:56.001Z</time>
      </trkpt>
      <trkpt lat="46.52978" lon="4.93336">
        <ele>171.193</ele>
        <time>2019-10-03T11:42:26.001Z</time>
      </trkpt>
      <trkpt lat="46.52846" lon="4.93457">
        <ele>173.808</ele>
        <time>2019-10-03T11:42:56.001Z</time>
      </trkpt>
      <trkpt lat="46.52689" lon="4.9355">
        <ele>168.036</ele>
        <time>2019-10-03T11:43:26.001Z</time>
      </trkpt>
      <trkpt lat="46.52545" lon="4.93602">
        <ele>168.896</ele>
        <time>2019-10-03T11:43:56.001Z</time>
      </trkpt>
      <trkpt lat="46.52406" lon="4.93636">
        <ele>167.888</ele>
        <time>2019-10-03T11:44:26.001Z</time>
      </trkpt>
      <trkpt lat="46.52244" lon="4.93689">
        <ele>167.697</ele>
        <time>2019-10-03T11:44:59.001Z</time>
      </trkpt>
      <trkpt lat="46.52102" lon="4.93699">
        <ele>168.494</ele>
        <time>2019-10-03T11:45:29.001Z</time>
      </trkpt>
      <trkpt lat="46.51952" lon="4.93685">
        <ele>168.926</ele>
        <time>2019-10-03T11:45:59.001Z</time>
      </trkpt>
      <trkpt lat="46.51799" lon="4.93641">
        <ele>172.331</ele>
        <time>2019-10-03T11:46:29.001Z</time>
      </trkpt>
      <trkpt lat="46.51654" lon="4.93554">
        <ele>172.614</ele>
        <time>2019-10-03T11:46:59.001Z</time>
      </trkpt>
      <trkpt lat="46.51524" lon="4.93434">
        <ele>171.016</ele>
        <time>2019-10-03T11:47:29.001Z</time>
      </trkpt>
      <trkpt lat="46.5139" lon="4.93287">
        <ele>172.416</ele>
        <time>2019-10-03T11:47:59.001Z</time>
      </trkpt>
      <trkpt lat="46.5126" lon="4.93166">
        <ele>170.998</ele>
        <time>2019-10-03T11:48:29.001Z</time>
      </trkpt>
      <trkpt lat="46.51126" lon="4.93043">
        <ele>171.928</ele>
        <time>2019-10-03T11:48:59.001Z</time>
      </trkpt>
      <trkpt lat="46.50982" lon="4.92955">
        <ele>170.894</ele>
        <time>2019-10-03T11:49:29.001Z</time>
      </trkpt>
      <trkpt lat="46.50835" lon="4.92899">
        <ele>172.96</ele>
        <time>2019-10-03T11:49:59.001Z</time>
      </trkpt>
      <trkpt lat="46.50684" lon="4.92858">
        <ele>174.156</ele>
        <time>2019-10-03T11:50:29.001Z</time>
      </trkpt>
      <trkpt lat="46.50535" lon="4.92803">
        <ele>172.1</ele>
        <time>2019-10-03T11:50:59.001Z</time>
      </trkpt>
      <trkpt lat="46.50415" lon="4.92723">
        <ele>172.157</ele>
        <time>2019-10-03T11:51:29.001Z</time>
      </trkpt>
      <trkpt lat="46.50267" lon="4.92644">
        <ele>171.413</ele>
        <time>2019-10-03T11:51:59.001Z</time>
      </trkpt>
      <trkpt lat="46.50104" lon="4.92612">
        <ele>167.323</ele>
        <time>2019-10-03T11:52:32.001Z</time>
      </trkpt>
      <trkpt lat="46.49963" lon="4.92567">
        <ele>169.354</ele>
        <time>2019-10-03T11:53:02Z</time>
      </trkpt>
      <trkpt lat="46.49822" lon="4.92487">
        <ele>170.878</ele>
        <time>2019-10-03T11:53:32.001Z</time>
      </trkpt>
      <trkpt lat="46.49688" lon="4.92394">
        <ele>171.923</ele>
        <time>2019-10-03T11:54:02Z</time>
      </trkpt>
      <trkpt lat="46.49579" lon="4.92254">
        <ele>173.501</ele>
        <time>2019-10-03T11:54:32.001Z</time>
      </trkpt>
      <trkpt lat="46.49487" lon="4.92094">
        <ele>174.353</ele>
        <time>2019-10-03T11:55:02Z</time>
      </trkpt>
      <trkpt lat="46.49388" lon="4.91933">
        <ele>173.271</ele>
        <time>2019-10-03T11:55:32.001Z</time>
      </trkpt>
      <trkpt lat="46.49279" lon="4.91789">
        <ele>173.084</ele>
        <time>2019-10-03T11:56:02Z</time>
      </trkpt>
      <trkpt lat="46.49171" lon="4.91612">
        <ele>171.508</ele>
        <time>2019-10-03T11:56:32.001Z</time>
      </trkpt>
      <trkpt lat="46.49079" lon="4.9143">
        <ele>171.26</ele>
        <time>2019-10-03T11:57:02Z</time>
      </trkpt>
      <trkpt lat="46.48947" lon="4.91316">
        <ele>168.129</ele>
        <time>2019-10-03T11:57:32.001Z</time>
      </trkpt>
      <trkpt lat="46.48808" lon="4.91258">
        <ele>172.257</ele>
        <time>2019-10-03T11:58:02Z</time>
      </trkpt>
      <trkpt lat="46.48673" lon="4.91233">
        <ele>171.23</ele>
        <time>2019-10-03T11:58:32.001Z</time>
      </trkpt>
      <trkpt lat="46.48527" lon="4.9124">
        <ele>167.273</ele>
        <time>2019-10-03T11:59:02Z</time>
      </trkpt>
      <trkpt lat="46.48366" lon="4.91252">
        <ele>168.595</ele>
        <time>2019-10-03T11:59:35.001Z</time>
      </trkpt>
      <trkpt lat="46.48213" lon="4.91258">
        <ele>169.093</ele>
        <time>2019-10-03T12:00:05.001Z</time>
      </trkpt>
      <trkpt lat="46.48059" lon="4.91257">
        <ele>170.004</ele>
        <time>2019-10-03T12:00:35.001Z</time>
      </trkpt>
      <trkpt lat="46.47902" lon="4.91276">
        <ele>167.836</ele>
        <time>2019-10-03T12:01:05.001Z</time>
      </trkpt>
      <trkpt lat="46.47749" lon="4.91312">
        <ele>163.793</ele>
        <time>2019-10-03T12:01:35.001Z</time>
      </trkpt>
      <trkpt lat="46.47605" lon="4.91349">
        <ele>164.532</ele>
        <time>2019-10-03T12:02:05.001Z</time>
      </trkpt>
      <trkpt lat="46.47458" lon="4.91398">
        <ele>168.925</ele>
        <time>2019-10-03T12:02:35.001Z</time>
      </trkpt>
      <trkpt lat="46.47377" lon="4.91411">
        <ele>170.126</ele>
        <time>2019-10-03T12:05:05.001Z</time>
      </trkpt>
      <trkpt lat="46.47254" lon="4.91414">
        <ele>168.855</ele>
        <time>2019-10-03T12:05:35.001Z</time>
      </trkpt>
      <trkpt lat="46.47114" lon="4.9141">
        <ele>167.996</ele>
        <time>2019-10-03T12:06:05.001Z</time>
      </trkpt>
      <trkpt lat="46.46965" lon="4.91413">
        <ele>171.446</ele>
        <time>2019-10-03T12:06:35.001Z</time>
      </trkpt>
      <trkpt lat="46.46818" lon="4.91418">
        <ele>170.871</ele>
        <time>2019-10-03T12:07:05.001Z</time>
      </trkpt>
      <trkpt lat="46.46679" lon="4.91372">
        <ele>171.766</ele>
        <time>2019-10-03T12:07:35.001Z</time>
      </trkpt>
      <trkpt lat="46.46541" lon="4.91327">
        <ele>170.96</ele>
        <time>2019-10-03T12:08:05.001Z</time>
      </trkpt>
      <trkpt lat="46.46398" lon="4.91301">
        <ele>169.66</ele>
        <time>2019-10-03T12:08:35.001Z</time>
      </trkpt>
      <trkpt lat="46.46243" lon="4.91256">
        <ele>167.541</ele>
        <time>2019-10-03T12:09:08.001Z</time>
      </trkpt>
      <trkpt lat="46.46111" lon="4.91183">
        <ele>169.102</ele>
        <time>2019-10-03T12:09:38.001Z</time>
      </trkpt>
      <trkpt lat="46.45981" lon="4.91076">
        <ele>172.964</ele>
        <time>2019-10-03T12:10:08.001Z</time>
      </trkpt>
      <trkpt lat="46.4588" lon="4.90951">
        <ele>172.659</ele>
        <time>2019-10-03T12:10:38.001Z</time>
      </trkpt>
      <trkpt lat="46.45767" lon="4.90812">
        <ele>171.67</ele>
        <time>2019-10-03T12:11:08.001Z</time>
      </trkpt>
      <trkpt lat="46.45675" lon="4.90666">
        <ele>167.073</ele>
        <time>2019-10-03T12:11:38.001Z</time>
      </trkpt>
      <trkpt lat="46.45596" lon="4.90503">
        <ele>173.989</ele>
        <time>2019-10-03T12:12:08.001Z</time>
      </trkpt>
      <trkpt lat="46.45505" lon="4.90335">
        <ele>174.049</ele>
        <time>2019-10-03T12:12:38.001Z</time>
      </trkpt>
      <trkpt lat="46.45403" lon="4.90199">
        <ele>174.018</ele>
        <time>2019-10-03T12:13:08.001Z</time>
      </trkpt>
      <trkpt lat="46.45298" lon="4.90056">
        <ele>171.6</ele>
        <time>2019-10-03T12:13:38.001Z</time>
      </trkpt>
      <trkpt lat="46.45205" lon="4.89908">
        <ele>173.568</ele>
        <time>2019-10-03T12:14:08.001Z</time>
      </trkpt>
      <trkpt lat="46.451" lon="4.89752">
        <ele>172.416</ele>
        <time>2019-10-03T12:14:38.001Z</time>
      </trkpt>
      <trkpt lat="46.44995" lon="4.89632">
        <ele>173.247</ele>
        <time>2019-10-03T12:15:08.001Z</time>
      </trkpt>
      <trkpt lat="46.44869" lon="4.89518">
        <ele>173.655</ele>
        <time>2019-10-03T12:15:38.001Z</time>
      </trkpt>
      <trkpt lat="46.44751" lon="4.89432">
        <ele>170.943</ele>
        <time>2019-10-03T12:16:08.001Z</time>
      </trkpt>
      <trkpt lat="46.4463" lon="4.89311">
        <ele>173.819</ele>
        <time>2019-10-03T12:16:41.001Z</time>
      </trkpt>
      <trkpt lat="46.44641" lon="4.8914">
        <ele>172.853</ele>
        <time>2019-10-03T12:17:11.001Z</time>
      </trkpt>
      <trkpt lat="46.44699" lon="4.88947">
        <ele>173.104</ele>
        <time>2019-10-03T12:17:41.001Z</time>
      </trkpt>
      <trkpt lat="46.4475" lon="4.8876">
        <ele>170.895</ele>
        <time>2019-10-03T12:18:11.001Z</time>
      </trkpt>
      <trkpt lat="46.44711" lon="4.88642">
        <ele>170.041</ele>
        <time>2019-10-03T12:18:41.001Z</time>
      </trkpt>
      <trkpt lat="46.44652" lon="4.88578">
        <ele>171.701</ele>
        <time>2019-10-03T12:19:29.001Z</time>
      </trkpt>
      <trkpt lat="46.44607" lon="4.88563">
        <ele>172.693</ele>
        <time>2019-10-03T12:24:11.001Z</time>
      </trkpt>
      <trkpt lat="46.44514" lon="4.88639">
        <ele>171.646</ele>
        <time>2019-10-03T12:24:41.001Z</time>
      </trkpt>
      <trkpt lat="46.44448" lon="4.8849">
        <ele>171.026</ele>
        <time>2019-10-03T12:25:11.001Z</time>
      </trkpt>
      <trkpt lat="46.44356" lon="4.88445">
        <ele>171.567</ele>
        <time>2019-10-03T12:25:41.001Z</time>
      </trkpt>
      <trkpt lat="46.44265" lon="4.88482">
        <ele>172.293</ele>
        <time>2019-10-03T12:26:11.001Z</time>
      </trkpt>
      <trkpt lat="46.44131" lon="4.88417">
        <ele>173.319</ele>
        <time>2019-10-03T12:26:41.001Z</time>
      </trkpt>
      <trkpt lat="46.4399" lon="4.88347">
        <ele>172.683</ele>
        <time>2019-10-03T12:27:11.001Z</time>
      </trkpt>
      <trkpt lat="46.4389" lon="4.88407">
        <ele>174.187</ele>
        <time>2019-10-03T12:27:41.001Z</time>
      </trkpt>
      <trkpt lat="46.43773" lon="4.8846">
        <ele>171.704</ele>
        <time>2019-10-03T12:28:14.001Z</time>
      </trkpt>
      <trkpt lat="46.43622" lon="4.88408">
        <ele>172.687</ele>
        <time>2019-10-03T12:28:44.001Z</time>
      </trkpt>
      <trkpt lat="46.4353" lon="4.88574">
        <ele>171.669</ele>
        <time>2019-10-03T12:29:14.001Z</time>
      </trkpt>
      <trkpt lat="46.4345" lon="4.88756">
        <ele>171.094</ele>
        <time>2019-10-03T12:29:44.001Z</time>
      </trkpt>
      <trkpt lat="46.43297" lon="4.88737">
        <ele>169.178</ele>
        <time>2019-10-03T12:30:14.001Z</time>
      </trkpt>
      <trkpt lat="46.43149" lon="4.88733">
        <ele>170.744</ele>
        <time>2019-10-03T12:30:44.001Z</time>
      </trkpt>
      <trkpt lat="46.43008" lon="4.88799">
        <ele>171.937</ele>
        <time>2019-10-03T12:31:14.001Z</time>
      </trkpt>
      <trkpt lat="46.42869" lon="4.88849">
        <ele>170.155</ele>
        <time>2019-10-03T12:31:44.001Z</time>
      </trkpt>
      <trkpt lat="46.42711" lon="4.88844">
        <ele>168.858</ele>
        <time>2019-10-03T12:32:14.001Z</time>
      </trkpt>
      <trkpt lat="46.42556" lon="4.88834">
        <ele>172.363</ele>
        <time>2019-10-03T12:32:44.001Z</time>
      </trkpt>
      <trkpt lat="46.42406" lon="4.88814">
        <ele>172.398</ele>
        <time>2019-10-03T12:33:14.001Z</time>
      </trkpt>
      <trkpt lat="46.4225" lon="4.88785">
        <ele>172.13</ele>
        <time>2019-10-03T12:33:44.001Z</time>
      </trkpt>
      <trkpt lat="46.42092" lon="4.88753">
        <ele>171.752</ele>
        <time>2019-10-03T12:34:14.001Z</time>
      </trkpt>
      <trkpt lat="46.41937" lon="4.88722">
        <ele>170.54</ele>
        <time>2019-10-03T12:34:44.001Z</time>
      </trkpt>
      <trkpt lat="46.41787" lon="4.88699">
        <ele>171.265</ele>
        <time>2019-10-03T12:35:14.001Z</time>
      </trkpt>
      <trkpt lat="46.41623" lon="4.88653">
        <ele>171.465</ele>
        <time>2019-10-03T12:35:47.001Z</time>
      </trkpt>
      <trkpt lat="46.41477" lon="4.88606">
        <ele>169.949</ele>
        <time>2019-10-03T12:36:17.001Z</time>
      </trkpt>
      <trkpt lat="46.41325" lon="4.88583">
        <ele>170.519</ele>
        <time>2019-10-03T12:36:47.001Z</time>
      </trkpt>
      <trkpt lat="46.41171" lon="4.88573">
        <ele>170.275</ele>
        <time>2019-10-03T12:37:17.001Z</time>
      </trkpt>
      <trkpt lat="46.41019" lon="4.88579">
        <ele>170.306</ele>
        <time>2019-10-03T12:37:47.001Z</time>
      </trkpt>
      <trkpt lat="46.40993" lon="4.88541">
        <ele>170.734</ele>
        <time>2019-10-03T12:38:47.001Z</time>
      </trkpt>
      <trkpt lat="46.409" lon="4.88654">
        <ele>171.524</ele>
        <time>2019-10-03T12:39:17.001Z</time>
      </trkpt>
      <trkpt lat="46.40748" lon="4.88694">
        <ele>169.249</ele>
        <time>2019-10-03T12:39:47.001Z</time>
      </trkpt>
      <trkpt lat="46.40599" lon="4.88736">
        <ele>168.574</ele>
        <time>2019-10-03T12:40:17.001Z</time>
      </trkpt>
      <trkpt lat="46.40448" lon="4.88697">
        <ele>169.565</ele>
        <time>2019-10-03T12:40:47.001Z</time>
      </trkpt>
      <trkpt lat="46.40314" lon="4.88587">
        <ele>169.492</ele>
        <time>2019-10-03T12:41:17.001Z</time>
      </trkpt>
      <trkpt lat="46.40185" lon="4.88486">
        <ele>172.019</ele>
        <time>2019-10-03T12:41:47.001Z</time>
      </trkpt>
      <trkpt lat="46.4005" lon="4.88383">
        <ele>168.259</ele>
        <time>2019-10-03T12:42:17.001Z</time>
      </trkpt>
      <trkpt lat="46.39926" lon="4.88264">
        <ele>167.23</ele>
        <time>2019-10-03T12:42:47.001Z</time>
      </trkpt>
      <trkpt lat="46.3978" lon="4.88146">
        <ele>169.145</ele>
        <time>2019-10-03T12:43:20.001Z</time>
      </trkpt>
      <trkpt lat="46.39635" lon="4.88057">
        <ele>168.882</ele>
        <time>2019-10-03T12:43:50.001Z</time>
      </trkpt>
      <trkpt lat="46.39483" lon="4.87979">
        <ele>167.884</ele>
        <time>2019-10-03T12:44:20.001Z</time>
      </trkpt>
      <trkpt lat="46.3934" lon="4.87874">
        <ele>169.621</ele>
        <time>2019-10-03T12:44:50.001Z</time>
      </trkpt>
      <trkpt lat="46.39203" lon="4.87753">
        <ele>171.609</ele>
        <time>2019-10-03T12:45:20.001Z</time>
      </trkpt>
      <trkpt lat="46.3909" lon="4.8762">
        <ele>170.511</ele>
        <time>2019-10-03T12:45:50.001Z</time>
      </trkpt>
      <trkpt lat="46.38967" lon="4.87507">
        <ele>171.026</ele>
        <time>2019-10-03T12:46:20.001Z</time>
      </trkpt>
      <trkpt lat="46.38844" lon="4.87403">
        <ele>169.464</ele>
        <time>2019-10-03T12:46:50.001Z</time>
      </trkpt>
      <trkpt lat="46.38703" lon="4.87316">
        <ele>170.941</ele>
        <time>2019-10-03T12:47:20.001Z</time>
      </trkpt>
      <trkpt lat="46.38549" lon="4.87232">
        <ele>171.006</ele>
        <time>2019-10-03T12:47:50.001Z</time>
      </trkpt>
      <trkpt lat="46.38408" lon="4.87146">
        <ele>170.515</ele>
        <time>2019-10-03T12:48:20.001Z</time>
      </trkpt>
      <trkpt lat="46.38275" lon="4.87042">
        <ele>168.568</ele>
        <time>2019-10-03T12:48:50.001Z</time>
      </trkpt>
      <trkpt lat="46.38154" lon="4.86911">
        <ele>171.23</ele>
        <time>2019-10-03T12:49:20.001Z</time>
      </trkpt>
      <trkpt lat="46.38015" lon="4.86774">
        <ele>169.866</ele>
        <time>2019-10-03T12:49:50.001Z</time>
      </trkpt>
      <trkpt lat="46.3789" lon="4.86651">
        <ele>171.021</ele>
        <time>2019-10-03T12:50:20.001Z</time>
      </trkpt>
      <trkpt lat="46.37743" lon="4.86535">
        <ele>169.935</ele>
        <time>2019-10-03T12:50:53.001Z</time>
      </trkpt>
      <trkpt lat="46.37611" lon="4.86419">
        <ele>172.356</ele>
        <time>2019-10-03T12:51:23.001Z</time>
      </trkpt>
      <trkpt lat="46.37482" lon="4.863">
        <ele>173.171</ele>
        <time>2019-10-03T12:51:53.001Z</time>
      </trkpt>
      <trkpt lat="46.37364" lon="4.86196">
        <ele>171.054</ele>
        <time>2019-10-03T12:52:23.001Z</time>
      </trkpt>
      <trkpt lat="46.37232" lon="4.8607">
        <ele>172.967</ele>
        <time>2019-10-03T12:52:53.001Z</time>
      </trkpt>
      <trkpt lat="46.37107" lon="4.85951">
        <ele>171.968</ele>
        <time>2019-10-03T12:53:23.001Z</time>
      </trkpt>
      <trkpt lat="46.36964" lon="4.85837">
        <ele>169.997</ele>
        <time>2019-10-03T12:53:53.001Z</time>
      </trkpt>
      <trkpt lat="46.36824" lon="4.85733">
        <ele>171.688</ele>
        <time>2019-10-03T12:54:23.001Z</time>
      </trkpt>
      <trkpt lat="46.3669" lon="4.8564">
        <ele>172.708</ele>
        <time>2019-10-03T12:54:53.001Z</time>
      </trkpt>
      <trkpt lat="46.36547" lon="4.8553">
        <ele>171.672</ele>
        <time>2019-10-03T12:55:23.001Z</time>
      </trkpt>
      <trkpt lat="46.36422" lon="4.85432">
        <ele>170.555</ele>
        <time>2019-10-03T12:55:53.001Z</time>
      </trkpt>
      <trkpt lat="46.36274" lon="4.85351">
        <ele>169.028</ele>
        <time>2019-10-03T12:56:23.001Z</time>
      </trkpt>
      <trkpt lat="46.36131" lon="4.85305">
        <ele>169.496</ele>
        <time>2019-10-03T12:56:53.001Z</time>
      </trkpt>
      <trkpt lat="46.35979" lon="4.85253">
        <ele>169.562</ele>
        <time>2019-10-03T12:57:23.001Z</time>
      </trkpt>
      <trkpt lat="46.3584" lon="4.85155">
        <ele>171.649</ele>
        <time>2019-10-03T12:57:53.001Z</time>
      </trkpt>
      <trkpt lat="46.35677" lon="4.85057">
        <ele>171.657</ele>
        <time>2019-10-03T12:58:26.001Z</time>
      </trkpt>
      <trkpt lat="46.35529" lon="4.84998">
        <ele>170.424</ele>
        <time>2019-10-03T12:58:56.001Z</time>
      </trkpt>
      <trkpt lat="46.35363" lon="4.84977">
        <ele>172.187</ele>
        <time>2019-10-03T12:59:26.001Z</time>
      </trkpt>
      <trkpt lat="46.35199" lon="4.84991">
        <ele>170.325</ele>
        <time>2019-10-03T12:59:56.001Z</time>
      </trkpt>
      <trkpt lat="46.35048" lon="4.85023">
        <ele>172.282</ele>
        <time>2019-10-03T13:00:26.001Z</time>
      </trkpt>
      <trkpt lat="46.34898" lon="4.85048">
        <ele>173.932</ele>
        <time>2019-10-03T13:00:56.001Z</time>
      </trkpt>
      <trkpt lat="46.34716" lon="4.8509">
        <ele>171.21</ele>
        <time>2019-10-03T13:01:26.001Z</time>
      </trkpt>
      <trkpt lat="46.34558" lon="4.85102">
        <ele>168.429</ele>
        <time>2019-10-03T13:01:56.001Z</time>
      </trkpt>
      <trkpt lat="46.34402" lon="4.85108">
        <ele>172.886</ele>
        <time>2019-10-03T13:02:26.001Z</time>
      </trkpt>
      <trkpt lat="46.34241" lon="4.85117">
        <ele>174.735</ele>
        <time>2019-10-03T13:02:56.001Z</time>
      </trkpt>
      <trkpt lat="46.34071" lon="4.85091">
        <ele>174.975</ele>
        <time>2019-10-03T13:03:26.001Z</time>
      </trkpt>
      <trkpt lat="46.33924" lon="4.85082">
        <ele>173.002</ele>
        <time>2019-10-03T13:03:56.001Z</time>
      </trkpt>
      <trkpt lat="46.33757" lon="4.85067">
        <ele>174.855</ele>
        <time>2019-10-03T13:04:26.001Z</time>
      </trkpt>
      <trkpt lat="46.336" lon="4.85055">
        <ele>172.247</ele>
        <time>2019-10-03T13:04:56.001Z</time>
      </trkpt>
      <trkpt lat="46.33422" lon="4.85067">
        <ele>170.041</ele>
        <time>2019-10-03T13:05:29.001Z</time>
      </trkpt>
      <trkpt lat="46.33272" lon="4.85086">
        <ele>172.611</ele>
        <time>2019-10-03T13:05:59.001Z</time>
      </trkpt>
      <trkpt lat="46.33116" lon="4.85086">
        <ele>174.161</ele>
        <time>2019-10-03T13:06:29.001Z</time>
      </trkpt>
      <trkpt lat="46.32955" lon="4.85058">
        <ele>172.349</ele>
        <time>2019-10-03T13:06:59.001Z</time>
      </trkpt>
      <trkpt lat="46.32822" lon="4.84964">
        <ele>167.908</ele>
        <time>2019-10-03T13:07:29.001Z</time>
      </trkpt>
      <trkpt lat="46.32695" lon="4.84795">
        <ele>166.572</ele>
        <time>2019-10-03T13:07:59.001Z</time>
      </trkpt>
      <trkpt lat="46.32611" lon="4.8462">
        <ele>166.673</ele>
        <time>2019-10-03T13:08:29.001Z</time>
      </trkpt>
      <trkpt lat="46.32577" lon="4.84514">
        <ele>166.927</ele>
        <time>2019-10-03T13:10:35.001Z</time>
      </trkpt>
      <trkpt lat="46.3256" lon="4.84384">
        <ele>166.354</ele>
        <time>2019-10-03T13:11:05.001Z</time>
      </trkpt>
      <trkpt lat="46.32515" lon="4.8423">
        <ele>169.908</ele>
        <time>2019-10-03T13:11:35.001Z</time>
      </trkpt>
      <trkpt lat="46.32567" lon="4.842">
        <ele>180.188</ele>
        <time>2019-10-03T13:12:05.001Z</time>
      </trkpt>
      <trkpt lat="46.32691" lon="4.84254">
        <ele>188.544</ele>
        <time>2019-10-03T13:12:35.001Z</time>
      </trkpt>
      <trkpt lat="46.32818" lon="4.84306">
        <ele>177.572</ele>
        <time>2019-10-03T13:13:05.001Z</time>
      </trkpt>
      <trkpt lat="46.32945" lon="4.84344">
        <ele>174.6</ele>
        <time>2019-10-03T13:13:35.001Z</time>
      </trkpt>
      <trkpt lat="46.33059" lon="4.84335">
        <ele>183.178</ele>
        <time>2019-10-03T13:14:05.001Z</time>
      </trkpt>
      <trkpt lat="46.33035" lon="4.84369">
        <ele>183.952</ele>
        <time>2019-10-03T13:20:53.001Z</time>
      </trkpt>
      <trkpt lat="46.33021" lon="4.84447">
        <ele>180.384</ele>
        <time>2019-10-03T13:21:23.001Z</time>
      </trkpt>
      <trkpt lat="46.33034" lon="4.84547">
        <ele>183.607</ele>
        <time>2019-10-03T13:21:53.001Z</time>
      </trkpt>
      <trkpt lat="46.33039" lon="4.84634">
        <ele>177.747</ele>
        <time>2019-10-03T13:22:23.001Z</time>
      </trkpt>
      <trkpt lat="46.33001" lon="4.84646">
        <ele>182.285</ele>
        <time>2019-10-03T13:23:41.001Z</time>
      </trkpt>
      <trkpt lat="46.32944" lon="4.84628">
        <ele>182.007</ele>
        <time>2019-10-03T13:24:11.001Z</time>
      </trkpt>
      <trkpt lat="46.32942" lon="4.8461">
        <ele>178.288</ele>
        <time>2019-10-03T13:24:53.001Z</time>
      </trkpt>
    </trkseg>
  </trk>
</gpx>